sensor_id;sensor_type;location;lat;lon;timestamp;temperature;humidity
37322;DHT22;23697;48.684;9.032;2022-08-19T00:00:17;20.40;73.00
37322;DHT22;23697;48.684;9.032;2022-08-19T00:02:45;20.30;73.10
37322;DHT22;23697;48.684;9.032;2022-08-19T00:05:13;20.30;73.30
37322;DHT22;23697;48.684;9.032;2022-08-19T00:07:42;20.20;73.50
37322;DHT22;23697;48.684;9.032;2022-08-19T00:10:11;20.20;73.60
37322;DHT22;23697;48.684;9.032;2022-08-19T00:12:38;20.20;73.30
37322;DHT22;23697;48.684;9.032;2022-08-19T00:15:07;20.20;73.30
37322;DHT22;23697;48.684;9.032;2022-08-19T00:17:38;20.20;73.40
37322;DHT22;23697;48.684;9.032;2022-08-19T00:20:06;20.20;73.60
37322;DHT22;23697;48.684;9.032;2022-08-19T00:22:33;20.20;73.80
37322;DHT22;23697;48.684;9.032;2022-08-19T00:25:02;20.20;73.50
37322;DHT22;23697;48.684;9.032;2022-08-19T00:27:29;20.20;73.80
37322;DHT22;23697;48.684;9.032;2022-08-19T00:29:56;20.10;73.70
37322;DHT22;23697;48.684;9.032;2022-08-19T00:32:24;20.10;73.70
37322;DHT22;23697;48.684;9.032;2022-08-19T00:34:51;20.10;74.00
37322;DHT22;23697;48.684;9.032;2022-08-19T00:37:18;20.10;73.80
37322;DHT22;23697;48.684;9.032;2022-08-19T00:39:48;20.10;74.20
37322;DHT22;23697;48.684;9.032;2022-08-19T00:42:18;20.10;74.30
37322;DHT22;23697;48.684;9.032;2022-08-19T00:44:46;20.00;74.50
37322;DHT22;23697;48.684;9.032;2022-08-19T00:47:13;20.10;74.50
37322;DHT22;23697;48.684;9.032;2022-08-19T00:49:42;20.00;74.30
37322;DHT22;23697;48.684;9.032;2022-08-19T00:52:14;20.00;74.40
37322;DHT22;23697;48.684;9.032;2022-08-19T00:54:42;20.00;74.70
37322;DHT22;23697;48.684;9.032;2022-08-19T00:57:11;19.90;74.60
37322;DHT22;23697;48.684;9.032;2022-08-19T00:59:45;20.00;74.80
37322;DHT22;23697;48.684;9.032;2022-08-19T01:02:12;19.90;74.80
37322;DHT22;23697;48.684;9.032;2022-08-19T01:04:39;20.00;74.90
37322;DHT22;23697;48.684;9.032;2022-08-19T01:07:07;19.90;75.10
37322;DHT22;23697;48.684;9.032;2022-08-19T01:09:34;19.90;75.20
37322;DHT22;23697;48.684;9.032;2022-08-19T01:12:01;19.90;75.30
37322;DHT22;23697;48.684;9.032;2022-08-19T01:14:29;19.90;75.30
37322;DHT22;23697;48.684;9.032;2022-08-19T01:16:58;19.90;75.20
37322;DHT22;23697;48.684;9.032;2022-08-19T01:19:30;19.80;75.30
37322;DHT22;23697;48.684;9.032;2022-08-19T01:22:03;19.80;75.30
37322;DHT22;23697;48.684;9.032;2022-08-19T01:24:34;19.80;75.30
37322;DHT22;23697;48.684;9.032;2022-08-19T01:27:03;19.80;75.40
37322;DHT22;23697;48.684;9.032;2022-08-19T01:29:30;19.80;75.40
37322;DHT22;23697;48.684;9.032;2022-08-19T01:31:57;19.80;75.50
37322;DHT22;23697;48.684;9.032;2022-08-19T01:34:25;19.70;75.60
37322;DHT22;23697;48.684;9.032;2022-08-19T01:36:52;19.80;75.50
37322;DHT22;23697;48.684;9.032;2022-08-19T01:39:24;19.70;76.00
37322;DHT22;23697;48.684;9.032;2022-08-19T01:41:53;19.70;76.10
37322;DHT22;23697;48.684;9.032;2022-08-19T01:44:21;19.70;76.10
37322;DHT22;23697;48.684;9.032;2022-08-19T01:46:51;19.70;76.60
37322;DHT22;23697;48.684;9.032;2022-08-19T01:49:20;19.70;76.80
37322;DHT22;23697;48.684;9.032;2022-08-19T01:51:48;19.60;76.90
37322;DHT22;23697;48.684;9.032;2022-08-19T01:54:17;19.60;77.40
37322;DHT22;23697;48.684;9.032;2022-08-19T01:56:45;19.60;77.30
37322;DHT22;23697;48.684;9.032;2022-08-19T01:59:16;19.60;78.00
37322;DHT22;23697;48.684;9.032;2022-08-19T02:01:43;19.50;78.10
37322;DHT22;23697;48.684;9.032;2022-08-19T02:04:10;19.40;78.10
37322;DHT22;23697;48.684;9.032;2022-08-19T02:06:38;19.40;78.40
37322;DHT22;23697;48.684;9.032;2022-08-19T02:09:05;19.40;78.20
37322;DHT22;23697;48.684;9.032;2022-08-19T02:11:35;19.50;78.20
37322;DHT22;23697;48.684;9.032;2022-08-19T02:14:04;19.40;78.10
37322;DHT22;23697;48.684;9.032;2022-08-19T02:16:34;19.40;78.50
37322;DHT22;23697;48.684;9.032;2022-08-19T02:19:01;19.40;78.20
37322;DHT22;23697;48.684;9.032;2022-08-19T02:21:29;19.40;78.30
37322;DHT22;23697;48.684;9.032;2022-08-19T02:23:56;19.40;78.20
37322;DHT22;23697;48.684;9.032;2022-08-19T02:26:23;19.30;78.20
37322;DHT22;23697;48.684;9.032;2022-08-19T02:28:51;19.40;78.30
37322;DHT22;23697;48.684;9.032;2022-08-19T02:31:19;19.40;78.20
37322;DHT22;23697;48.684;9.032;2022-08-19T02:33:48;19.40;78.30
37322;DHT22;23697;48.684;9.032;2022-08-19T02:36:16;19.40;78.40
37322;DHT22;23697;48.684;9.032;2022-08-19T02:38:45;19.30;78.50
37322;DHT22;23697;48.684;9.032;2022-08-19T02:41:15;19.30;78.30
37322;DHT22;23697;48.684;9.032;2022-08-19T02:43:43;19.40;78.20
37322;DHT22;23697;48.684;9.032;2022-08-19T02:46:14;19.40;78.20
37322;DHT22;23697;48.684;9.032;2022-08-19T02:48:48;19.30;78.40
37322;DHT22;23697;48.684;9.032;2022-08-19T02:51:19;19.30;78.30
37322;DHT22;23697;48.684;9.032;2022-08-19T02:53:46;19.20;78.40
37322;DHT22;23697;48.684;9.032;2022-08-19T02:56:13;19.20;78.40
37322;DHT22;23697;48.684;9.032;2022-08-19T02:58:40;19.20;78.50
37322;DHT22;23697;48.684;9.032;2022-08-19T03:01:08;19.20;78.50
37322;DHT22;23697;48.684;9.032;2022-08-19T03:03:36;19.30;78.50
37322;DHT22;23697;48.684;9.032;2022-08-19T03:06:06;19.20;78.50
37322;DHT22;23697;48.684;9.032;2022-08-19T03:08:33;19.20;78.70
37322;DHT22;23697;48.684;9.032;2022-08-19T03:11:00;19.20;78.80
37322;DHT22;23697;48.684;9.032;2022-08-19T03:13:27;19.10;79.00
37322;DHT22;23697;48.684;9.032;2022-08-19T03:15:54;19.20;78.80
37322;DHT22;23697;48.684;9.032;2022-08-19T03:18:21;19.10;79.00
37322;DHT22;23697;48.684;9.032;2022-08-19T03:20:50;19.10;79.10
37322;DHT22;23697;48.684;9.032;2022-08-19T03:23:22;19.10;79.20
37322;DHT22;23697;48.684;9.032;2022-08-19T03:25:50;19.10;79.20
37322;DHT22;23697;48.684;9.032;2022-08-19T03:28:17;19.10;79.20
37322;DHT22;23697;48.684;9.032;2022-08-19T03:30:55;19.10;79.30
37322;DHT22;23697;48.684;9.032;2022-08-19T03:33:23;19.10;79.30
37322;DHT22;23697;48.684;9.032;2022-08-19T03:36:03;19.10;79.30
37322;DHT22;23697;48.684;9.032;2022-08-19T03:38:32;19.10;79.40
37322;DHT22;23697;48.684;9.032;2022-08-19T03:41:03;19.10;79.30
37322;DHT22;23697;48.684;9.032;2022-08-19T03:43:32;19.00;79.40
37322;DHT22;23697;48.684;9.032;2022-08-19T03:46:01;19.00;79.60
37322;DHT22;23697;48.684;9.032;2022-08-19T03:48:29;19.00;79.50
37322;DHT22;23697;48.684;9.032;2022-08-19T03:50:57;18.90;79.80
37322;DHT22;23697;48.684;9.032;2022-08-19T03:53:25;19.00;80.00
37322;DHT22;23697;48.684;9.032;2022-08-19T03:55:54;18.90;80.20
37322;DHT22;23697;48.684;9.032;2022-08-19T03:58:21;18.90;80.10
37322;DHT22;23697;48.684;9.032;2022-08-19T04:00:48;18.90;80.20
37322;DHT22;23697;48.684;9.032;2022-08-19T04:03:16;18.80;80.20
37322;DHT22;23697;48.684;9.032;2022-08-19T04:05:44;18.90;80.30
37322;DHT22;23697;48.684;9.032;2022-08-19T04:08:11;18.90;80.20
37322;DHT22;23697;48.684;9.032;2022-08-19T04:10:38;18.80;80.20
37322;DHT22;23697;48.684;9.032;2022-08-19T04:13:07;18.90;80.40
37322;DHT22;23697;48.684;9.032;2022-08-19T04:15:39;18.90;80.30
37322;DHT22;23697;48.684;9.032;2022-08-19T04:18:07;18.90;80.40
37322;DHT22;23697;48.684;9.032;2022-08-19T04:20:41;18.80;80.50
37322;DHT22;23697;48.684;9.032;2022-08-19T04:23:08;18.80;80.70
37322;DHT22;23697;48.684;9.032;2022-08-19T04:25:37;18.80;80.80
37322;DHT22;23697;48.684;9.032;2022-08-19T04:28:04;18.70;80.80
37322;DHT22;23697;48.684;9.032;2022-08-19T04:30:39;18.70;81.00
37322;DHT22;23697;48.684;9.032;2022-08-19T04:33:06;18.70;81.20
37322;DHT22;23697;48.684;9.032;2022-08-19T04:35:37;18.80;80.90
37322;DHT22;23697;48.684;9.032;2022-08-19T04:38:05;18.80;81.10
37322;DHT22;23697;48.684;9.032;2022-08-19T04:40:32;18.70;81.10
37322;DHT22;23697;48.684;9.032;2022-08-19T04:43:17;18.80;81.10
37322;DHT22;23697;48.684;9.032;2022-08-19T04:45:45;18.80;81.30
37322;DHT22;23697;48.684;9.032;2022-08-19T04:48:13;18.80;81.00
37322;DHT22;23697;48.684;9.032;2022-08-19T04:50:41;18.80;81.20
37322;DHT22;23697;48.684;9.032;2022-08-19T04:53:08;18.80;81.10
37322;DHT22;23697;48.684;9.032;2022-08-19T04:55:39;18.80;81.20
37322;DHT22;23697;48.684;9.032;2022-08-19T04:58:06;18.80;81.20
37322;DHT22;23697;48.684;9.032;2022-08-19T05:00:33;18.80;81.40
37322;DHT22;23697;48.684;9.032;2022-08-19T05:03:01;18.80;81.50
37322;DHT22;23697;48.684;9.032;2022-08-19T05:05:28;18.80;81.40
37322;DHT22;23697;48.684;9.032;2022-08-19T05:07:56;18.80;81.50
37322;DHT22;23697;48.684;9.032;2022-08-19T05:10:23;18.80;81.50
37322;DHT22;23697;48.684;9.032;2022-08-19T05:12:50;18.80;81.50
37322;DHT22;23697;48.684;9.032;2022-08-19T05:15:17;18.80;81.30
37322;DHT22;23697;48.684;9.032;2022-08-19T05:17:44;18.90;81.30
37322;DHT22;23697;48.684;9.032;2022-08-19T05:20:33;18.80;81.40
37322;DHT22;23697;48.684;9.032;2022-08-19T05:23:16;18.90;81.30
37322;DHT22;23697;48.684;9.032;2022-08-19T05:25:43;18.90;81.20
37322;DHT22;23697;48.684;9.032;2022-08-19T05:28:10;18.80;81.20
37322;DHT22;23697;48.684;9.032;2022-08-19T05:30:37;18.90;81.20
37322;DHT22;23697;48.684;9.032;2022-08-19T05:33:07;18.90;81.30
37322;DHT22;23697;48.684;9.032;2022-08-19T05:35:38;18.90;81.40
37322;DHT22;23697;48.684;9.032;2022-08-19T05:38:06;18.90;81.20
37322;DHT22;23697;48.684;9.032;2022-08-19T05:40:37;18.90;81.20
37322;DHT22;23697;48.684;9.032;2022-08-19T05:43:06;18.90;81.20
37322;DHT22;23697;48.684;9.032;2022-08-19T05:45:38;19.00;81.20
37322;DHT22;23697;48.684;9.032;2022-08-19T05:48:05;19.00;81.10
37322;DHT22;23697;48.684;9.032;2022-08-19T05:50:32;19.00;81.00
37322;DHT22;23697;48.684;9.032;2022-08-19T05:53:00;19.00;81.00
37322;DHT22;23697;48.684;9.032;2022-08-19T05:55:27;19.00;81.00
37322;DHT22;23697;48.684;9.032;2022-08-19T05:57:54;19.00;81.00
37322;DHT22;23697;48.684;9.032;2022-08-19T06:00:21;19.00;80.90
37322;DHT22;23697;48.684;9.032;2022-08-19T06:02:54;19.10;80.70
37322;DHT22;23697;48.684;9.032;2022-08-19T06:05:25;19.00;80.90
37322;DHT22;23697;48.684;9.032;2022-08-19T06:07:54;19.00;81.00
37322;DHT22;23697;48.684;9.032;2022-08-19T06:10:29;19.00;80.70
37322;DHT22;23697;48.684;9.032;2022-08-19T06:13:14;19.00;80.90
37322;DHT22;23697;48.684;9.032;2022-08-19T06:15:48;19.10;81.00
37322;DHT22;23697;48.684;9.032;2022-08-19T06:18:19;19.10;80.70
37322;DHT22;23697;48.684;9.032;2022-08-19T06:20:50;19.00;80.80
37322;DHT22;23697;48.684;9.032;2022-08-19T06:23:22;19.00;80.70
37322;DHT22;23697;48.684;9.032;2022-08-19T06:25:55;19.00;80.70
37322;DHT22;23697;48.684;9.032;2022-08-19T06:28:34;19.00;80.60
37322;DHT22;23697;48.684;9.032;2022-08-19T06:31:09;19.10;80.70
37322;DHT22;23697;48.684;9.032;2022-08-19T06:33:47;19.10;80.50
37322;DHT22;23697;48.684;9.032;2022-08-19T06:36:24;19.20;80.10
37322;DHT22;23697;48.684;9.032;2022-08-19T06:39:00;19.20;79.90
37322;DHT22;23697;48.684;9.032;2022-08-19T06:41:39;19.20;80.10
37322;DHT22;23697;48.684;9.032;2022-08-19T06:44:12;19.10;80.00
37322;DHT22;23697;48.684;9.032;2022-08-19T06:46:42;19.20;79.80
37322;DHT22;23697;48.684;9.032;2022-08-19T06:49:10;19.30;79.80
37322;DHT22;23697;48.684;9.032;2022-08-19T06:51:41;19.20;79.70
37322;DHT22;23697;48.684;9.032;2022-08-19T06:54:09;19.30;79.50
37322;DHT22;23697;48.684;9.032;2022-08-19T06:56:42;19.40;79.40
37322;DHT22;23697;48.684;9.032;2022-08-19T06:59:21;19.30;79.40
37322;DHT22;23697;48.684;9.032;2022-08-19T07:02:02;19.40;79.60
37322;DHT22;23697;48.684;9.032;2022-08-19T07:04:35;19.50;79.40
37322;DHT22;23697;48.684;9.032;2022-08-19T07:07:15;19.60;78.90
37322;DHT22;23697;48.684;9.032;2022-08-19T07:09:44;19.60;79.10
37322;DHT22;23697;48.684;9.032;2022-08-19T07:12:25;19.70;78.90
37322;DHT22;23697;48.684;9.032;2022-08-19T07:14:56;19.80;77.90
37322;DHT22;23697;48.684;9.032;2022-08-19T07:17:35;19.80;78.20
37322;DHT22;23697;48.684;9.032;2022-08-19T07:20:12;19.80;77.60
37322;DHT22;23697;48.684;9.032;2022-08-19T07:22:54;19.70;77.70
37322;DHT22;23697;48.684;9.032;2022-08-19T07:25:25;19.70;78.00
37322;DHT22;23697;48.684;9.032;2022-08-19T07:27:57;19.80;77.80
37322;DHT22;23697;48.684;9.032;2022-08-19T07:30:25;19.90;77.60
37322;DHT22;23697;48.684;9.032;2022-08-19T07:33:05;19.80;77.90
37322;DHT22;23697;48.684;9.032;2022-08-19T07:35:33;19.90;77.90
37322;DHT22;23697;48.684;9.032;2022-08-19T07:38:05;19.90;77.70
37322;DHT22;23697;48.684;9.032;2022-08-19T07:40:39;19.80;78.00
37322;DHT22;23697;48.684;9.032;2022-08-19T07:43:19;19.90;78.20
37322;DHT22;23697;48.684;9.032;2022-08-19T07:45:54;19.80;78.70
37322;DHT22;23697;48.684;9.032;2022-08-19T07:48:27;19.80;78.50
37322;DHT22;23697;48.684;9.032;2022-08-19T07:51:04;19.80;78.20
37322;DHT22;23697;48.684;9.032;2022-08-19T07:53:37;19.60;78.30
37322;DHT22;23697;48.684;9.032;2022-08-19T07:56:11;19.60;78.50
37322;DHT22;23697;48.684;9.032;2022-08-19T07:58:43;19.60;78.40
37322;DHT22;23697;48.684;9.032;2022-08-19T08:01:13;19.60;78.40
37322;DHT22;23697;48.684;9.032;2022-08-19T08:03:41;19.60;78.40
37322;DHT22;23697;48.684;9.032;2022-08-19T08:06:25;19.50;78.80
37322;DHT22;23697;48.684;9.032;2022-08-19T08:09:10;19.50;79.40
37322;DHT22;23697;48.684;9.032;2022-08-19T08:11:38;19.50;79.60
37322;DHT22;23697;48.684;9.032;2022-08-19T08:14:07;19.50;80.10
37322;DHT22;23697;48.684;9.032;2022-08-19T08:16:38;19.50;80.40
37322;DHT22;23697;48.684;9.032;2022-08-19T08:19:27;19.50;80.30
37322;DHT22;23697;48.684;9.032;2022-08-19T08:21:57;19.40;80.50
37322;DHT22;23697;48.684;9.032;2022-08-19T08:24:24;19.40;81.80
37322;DHT22;23697;48.684;9.032;2022-08-19T08:26:51;19.30;80.90
37322;DHT22;23697;48.684;9.032;2022-08-19T08:29:20;19.30;80.80
37322;DHT22;23697;48.684;9.032;2022-08-19T08:31:47;19.30;80.70
37322;DHT22;23697;48.684;9.032;2022-08-19T08:34:14;19.30;80.50
37322;DHT22;23697;48.684;9.032;2022-08-19T08:36:43;19.30;80.70
37322;DHT22;23697;48.684;9.032;2022-08-19T08:39:11;19.30;80.70
37322;DHT22;23697;48.684;9.032;2022-08-19T08:41:47;19.40;80.90
37322;DHT22;23697;48.684;9.032;2022-08-19T08:44:19;19.40;80.60
37322;DHT22;23697;48.684;9.032;2022-08-19T08:46:50;19.40;80.20
37322;DHT22;23697;48.684;9.032;2022-08-19T08:49:28;19.40;80.40
37322;DHT22;23697;48.684;9.032;2022-08-19T08:52:00;19.40;80.60
37322;DHT22;23697;48.684;9.032;2022-08-19T08:54:34;19.40;81.00
37322;DHT22;23697;48.684;9.032;2022-08-19T08:57:03;19.40;80.90
37322;DHT22;23697;48.684;9.032;2022-08-19T08:59:35;19.40;80.50
37322;DHT22;23697;48.684;9.032;2022-08-19T09:02:04;19.50;80.20
37322;DHT22;23697;48.684;9.032;2022-08-19T09:04:31;19.50;80.00
37322;DHT22;23697;48.684;9.032;2022-08-19T09:07:10;19.60;80.30
37322;DHT22;23697;48.684;9.032;2022-08-19T09:09:42;19.70;80.00
37322;DHT22;23697;48.684;9.032;2022-08-19T09:12:16;19.70;79.10
37322;DHT22;23697;48.684;9.032;2022-08-19T09:14:49;19.80;79.10
37322;DHT22;23697;48.684;9.032;2022-08-19T09:17:20;19.80;78.60
37322;DHT22;23697;48.684;9.032;2022-08-19T09:19:55;19.70;78.80
37322;DHT22;23697;48.684;9.032;2022-08-19T09:22:22;19.80;78.70
37322;DHT22;23697;48.684;9.032;2022-08-19T09:24:49;19.90;78.50
37322;DHT22;23697;48.684;9.032;2022-08-19T09:27:17;19.90;78.10
37322;DHT22;23697;48.684;9.032;2022-08-19T09:29:46;20.00;78.30
37322;DHT22;23697;48.684;9.032;2022-08-19T09:32:33;19.90;78.40
37322;DHT22;23697;48.684;9.032;2022-08-19T09:35:00;19.90;78.00
37322;DHT22;23697;48.684;9.032;2022-08-19T09:37:27;19.90;78.30
37322;DHT22;23697;48.684;9.032;2022-08-19T09:39:54;19.90;78.30
37322;DHT22;23697;48.684;9.032;2022-08-19T09:42:21;20.00;78.20
37322;DHT22;23697;48.684;9.032;2022-08-19T09:44:48;20.00;77.90
37322;DHT22;23697;48.684;9.032;2022-08-19T09:47:15;20.10;78.10
37322;DHT22;23697;48.684;9.032;2022-08-19T09:49:43;20.00;78.20
37322;DHT22;23697;48.684;9.032;2022-08-19T09:52:11;20.10;77.90
37322;DHT22;23697;48.684;9.032;2022-08-19T09:54:41;20.10;78.10
37322;DHT22;23697;48.684;9.032;2022-08-19T09:57:08;20.10;77.50
37322;DHT22;23697;48.684;9.032;2022-08-19T09:59:34;20.10;77.80
37322;DHT22;23697;48.684;9.032;2022-08-19T10:02:02;20.10;77.60
37322;DHT22;23697;48.684;9.032;2022-08-19T10:04:29;20.20;77.30
37322;DHT22;23697;48.684;9.032;2022-08-19T10:10:10;20.30;77.20
37322;DHT22;23697;48.684;9.032;2022-08-19T10:12:37;20.30;76.70
37322;DHT22;23697;48.684;9.032;2022-08-19T10:15:06;20.30;76.30
37322;DHT22;23697;48.684;9.032;2022-08-19T10:17:33;20.30;76.50
37322;DHT22;23697;48.684;9.032;2022-08-19T10:20:00;20.40;76.40
37322;DHT22;23697;48.684;9.032;2022-08-19T10:22:28;20.40;76.20
37322;DHT22;23697;48.684;9.032;2022-08-19T10:24:57;20.50;76.90
37322;DHT22;23697;48.684;9.032;2022-08-19T10:27:25;20.50;76.50
37322;DHT22;23697;48.684;9.032;2022-08-19T10:29:52;20.50;75.90
37322;DHT22;23697;48.684;9.032;2022-08-19T10:32:19;20.50;76.10
37322;DHT22;23697;48.684;9.032;2022-08-19T10:34:47;20.60;76.00
37322;DHT22;23697;48.684;9.032;2022-08-19T10:37:15;20.60;75.90
37322;DHT22;23697;48.684;9.032;2022-08-19T10:39:43;20.60;75.80
37322;DHT22;23697;48.684;9.032;2022-08-19T10:42:12;20.60;75.80
37322;DHT22;23697;48.684;9.032;2022-08-19T10:44:40;20.60;75.00
37322;DHT22;23697;48.684;9.032;2022-08-19T10:47:07;20.60;75.20
37322;DHT22;23697;48.684;9.032;2022-08-19T10:49:34;20.60;74.40
37322;DHT22;23697;48.684;9.032;2022-08-19T10:52:22;20.70;74.50
37322;DHT22;23697;48.684;9.032;2022-08-19T10:55:00;20.80;74.80
37322;DHT22;23697;48.684;9.032;2022-08-19T10:57:44;20.80;73.30
37322;DHT22;23697;48.684;9.032;2022-08-19T11:00:13;20.90;72.70
37322;DHT22;23697;48.684;9.032;2022-08-19T11:02:41;20.90;73.10
37322;DHT22;23697;48.684;9.032;2022-08-19T11:05:08;21.00;72.10
37322;DHT22;23697;48.684;9.032;2022-08-19T11:07:36;21.10;72.30
37322;DHT22;23697;48.684;9.032;2022-08-19T11:10:04;21.10;72.60
37322;DHT22;23697;48.684;9.032;2022-08-19T11:12:31;21.20;72.70
37322;DHT22;23697;48.684;9.032;2022-08-19T11:14:58;21.20;71.40
37322;DHT22;23697;48.684;9.032;2022-08-19T11:17:27;21.30;71.30
37322;DHT22;23697;48.684;9.032;2022-08-19T11:19:56;21.40;70.20
37322;DHT22;23697;48.684;9.032;2022-08-19T11:22:23;21.40;70.70
37322;DHT22;23697;48.684;9.032;2022-08-19T11:24:49;21.40;70.30
37322;DHT22;23697;48.684;9.032;2022-08-19T11:27:16;21.50;70.50
37322;DHT22;23697;48.684;9.032;2022-08-19T11:29:43;21.50;70.50
37322;DHT22;23697;48.684;9.032;2022-08-19T11:32:10;21.50;70.20
37322;DHT22;23697;48.684;9.032;2022-08-19T11:34:39;21.50;70.10
37322;DHT22;23697;48.684;9.032;2022-08-19T11:37:07;21.50;70.30
37322;DHT22;23697;48.684;9.032;2022-08-19T11:39:35;21.50;70.80
37322;DHT22;23697;48.684;9.032;2022-08-19T11:42:03;21.50;70.40
37322;DHT22;23697;48.684;9.032;2022-08-19T11:44:50;21.50;69.90
37322;DHT22;23697;48.684;9.032;2022-08-19T11:47:17;21.60;69.60
37322;DHT22;23697;48.684;9.032;2022-08-19T11:49:47;21.60;69.60
37322;DHT22;23697;48.684;9.032;2022-08-19T11:52:14;21.60;70.20
37322;DHT22;23697;48.684;9.032;2022-08-19T11:54:40;21.60;68.40
37322;DHT22;23697;48.684;9.032;2022-08-19T11:57:07;21.70;68.60
37322;DHT22;23697;48.684;9.032;2022-08-19T11:59:34;21.70;68.70
37322;DHT22;23697;48.684;9.032;2022-08-19T12:02:01;21.70;69.10
37322;DHT22;23697;48.684;9.032;2022-08-19T12:04:28;21.80;69.00
37322;DHT22;23697;48.684;9.032;2022-08-19T12:06:56;21.80;68.20
37322;DHT22;23697;48.684;9.032;2022-08-19T12:09:23;21.90;68.00
37322;DHT22;23697;48.684;9.032;2022-08-19T12:11:49;21.90;68.20
37322;DHT22;23697;48.684;9.032;2022-08-19T12:14:17;22.10;66.10
37322;DHT22;23697;48.684;9.032;2022-08-19T12:16:45;22.10;67.00
37322;DHT22;23697;48.684;9.032;2022-08-19T12:19:12;22.20;65.40
37322;DHT22;23697;48.684;9.032;2022-08-19T12:21:39;22.30;66.80
37322;DHT22;23697;48.684;9.032;2022-08-19T12:24:08;22.40;66.40
37322;DHT22;23697;48.684;9.032;2022-08-19T12:26:35;22.40;64.10
37322;DHT22;23697;48.684;9.032;2022-08-19T12:29:02;22.50;64.00
37322;DHT22;23697;48.684;9.032;2022-08-19T12:31:29;22.60;63.90
37322;DHT22;23697;48.684;9.032;2022-08-19T12:33:56;22.70;64.50
37322;DHT22;23697;48.684;9.032;2022-08-19T12:36:23;22.70;63.70
37322;DHT22;23697;48.684;9.032;2022-08-19T12:38:51;22.80;63.00
37322;DHT22;23697;48.684;9.032;2022-08-19T12:41:20;22.90;63.30
37322;DHT22;23697;48.684;9.032;2022-08-19T12:43:47;22.90;61.50
37322;DHT22;23697;48.684;9.032;2022-08-19T12:46:15;22.90;61.70
37322;DHT22;23697;48.684;9.032;2022-08-19T12:48:42;23.00;61.20
37322;DHT22;23697;48.684;9.032;2022-08-19T12:51:13;23.00;61.10
37322;DHT22;23697;48.684;9.032;2022-08-19T12:53:40;23.00;60.30
37322;DHT22;23697;48.684;9.032;2022-08-19T12:56:08;23.00;60.70
37322;DHT22;23697;48.684;9.032;2022-08-19T12:58:37;22.90;60.40
37322;DHT22;23697;48.684;9.032;2022-08-19T13:01:09;22.80;60.40
37322;DHT22;23697;48.684;9.032;2022-08-19T13:03:37;22.80;60.00
37322;DHT22;23697;48.684;9.032;2022-08-19T13:06:04;22.80;60.30
37322;DHT22;23697;48.684;9.032;2022-08-19T13:08:31;22.80;61.80
37322;DHT22;23697;48.684;9.032;2022-08-19T13:11:07;22.70;59.80
37322;DHT22;23697;48.684;9.032;2022-08-19T13:13:38;22.70;59.30
37322;DHT22;23697;48.684;9.032;2022-08-19T13:16:07;22.70;59.80
37322;DHT22;23697;48.684;9.032;2022-08-19T13:18:35;22.70;59.30
37322;DHT22;23697;48.684;9.032;2022-08-19T13:21:03;22.80;59.00
37322;DHT22;23697;48.684;9.032;2022-08-19T13:23:30;22.90;59.20
37322;DHT22;23697;48.684;9.032;2022-08-19T13:25:58;22.90;57.60
37322;DHT22;23697;48.684;9.032;2022-08-19T13:28:25;23.00;57.30
37322;DHT22;23697;48.684;9.032;2022-08-19T13:31:16;23.10;57.40
37322;DHT22;23697;48.684;9.032;2022-08-19T13:34:00;23.10;56.60
37322;DHT22;23697;48.684;9.032;2022-08-19T13:36:27;23.20;57.30
37322;DHT22;23697;48.684;9.032;2022-08-19T13:38:54;23.20;55.90
37322;DHT22;23697;48.684;9.032;2022-08-19T13:41:22;23.20;56.40
37322;DHT22;23697;48.684;9.032;2022-08-19T13:43:48;23.10;55.80
37322;DHT22;23697;48.684;9.032;2022-08-19T13:46:17;23.20;57.40
37322;DHT22;23697;48.684;9.032;2022-08-19T13:48:45;23.10;56.40
37322;DHT22;23697;48.684;9.032;2022-08-19T13:51:14;23.10;57.10
37322;DHT22;23697;48.684;9.032;2022-08-19T13:53:42;23.10;57.40
37322;DHT22;23697;48.684;9.032;2022-08-19T13:56:14;23.20;58.70
37322;DHT22;23697;48.684;9.032;2022-08-19T13:58:41;23.30;59.40
37322;DHT22;23697;48.684;9.032;2022-08-19T14:01:09;23.40;58.30
37322;DHT22;23697;48.684;9.032;2022-08-19T14:03:38;23.50;58.40
37322;DHT22;23697;48.684;9.032;2022-08-19T14:06:05;23.50;59.10
37322;DHT22;23697;48.684;9.032;2022-08-19T14:08:32;23.50;58.90
37322;DHT22;23697;48.684;9.032;2022-08-19T14:10:59;23.50;59.90
37322;DHT22;23697;48.684;9.032;2022-08-19T14:13:26;23.40;59.90
37322;DHT22;23697;48.684;9.032;2022-08-19T14:15:53;23.50;59.00
37322;DHT22;23697;48.684;9.032;2022-08-19T14:18:20;23.50;59.40
37322;DHT22;23697;48.684;9.032;2022-08-19T14:20:48;23.70;62.90
37322;DHT22;23697;48.684;9.032;2022-08-19T14:23:15;23.70;61.50
37322;DHT22;23697;48.684;9.032;2022-08-19T14:25:42;23.90;60.00
37322;DHT22;23697;48.684;9.032;2022-08-19T14:28:09;23.90;66.10
37322;DHT22;23697;48.684;9.032;2022-08-19T14:30:37;23.60;57.70
37322;DHT22;23697;48.684;9.032;2022-08-19T14:33:05;23.60;65.00
37322;DHT22;23697;48.684;9.032;2022-08-19T14:35:34;23.10;60.20
37322;DHT22;23697;48.684;9.032;2022-08-19T14:38:02;23.10;58.40
37322;DHT22;23697;48.684;9.032;2022-08-19T14:40:30;23.10;58.30
37322;DHT22;23697;48.684;9.032;2022-08-19T14:42:59;23.20;58.30
37322;DHT22;23697;48.684;9.032;2022-08-19T14:45:30;23.20;57.10
37322;DHT22;23697;48.684;9.032;2022-08-19T14:47:57;23.30;58.50
37322;DHT22;23697;48.684;9.032;2022-08-19T14:50:26;23.40;58.00
37322;DHT22;23697;48.684;9.032;2022-08-19T14:52:58;23.50;57.90
37322;DHT22;23697;48.684;9.032;2022-08-19T14:55:27;23.60;66.30
37322;DHT22;23697;48.684;9.032;2022-08-19T14:57:54;23.30;62.80
37322;DHT22;23697;48.684;9.032;2022-08-19T15:00:22;23.30;61.30
37322;DHT22;23697;48.684;9.032;2022-08-19T15:02:49;23.50;59.10
37322;DHT22;23697;48.684;9.032;2022-08-19T15:05:16;23.60;61.60
37322;DHT22;23697;48.684;9.032;2022-08-19T15:07:43;23.70;65.00
37322;DHT22;23697;48.684;9.032;2022-08-19T15:10:12;23.60;67.70
37322;DHT22;23697;48.684;9.032;2022-08-19T15:12:40;23.60;68.40
37322;DHT22;23697;48.684;9.032;2022-08-19T15:15:10;23.50;59.40
37322;DHT22;23697;48.684;9.032;2022-08-19T15:17:38;23.50;58.60
37322;DHT22;23697;48.684;9.032;2022-08-19T15:20:07;23.60;56.80
37322;DHT22;23697;48.684;9.032;2022-08-19T15:22:34;23.80;58.10
37322;DHT22;23697;48.684;9.032;2022-08-19T15:25:01;23.90;57.20
37322;DHT22;23697;48.684;9.032;2022-08-19T15:27:28;24.10;55.80
37322;DHT22;23697;48.684;9.032;2022-08-19T15:29:56;24.30;54.70
37322;DHT22;23697;48.684;9.032;2022-08-19T15:32:24;24.50;54.50
37322;DHT22;23697;48.684;9.032;2022-08-19T15:34:52;24.80;54.50
37322;DHT22;23697;48.684;9.032;2022-08-19T15:37:19;25.10;52.80
37322;DHT22;23697;48.684;9.032;2022-08-19T15:39:47;25.40;52.30
37322;DHT22;23697;48.684;9.032;2022-08-19T15:42:14;25.60;51.50
37322;DHT22;23697;48.684;9.032;2022-08-19T15:44:41;25.60;52.30
37322;DHT22;23697;48.684;9.032;2022-08-19T15:47:09;25.70;52.20